createdAt,value
2019-04-26T00:00:22.934Z,2.30
2019-04-26T00:04:24.918Z,2.67
2019-04-26T00:08:26.811Z,2.37
2019-04-26T00:13:24.790Z,1.98
2019-04-26T00:16:56.751Z,1.87
2019-04-26T00:20:58.991Z,2.00
2019-04-26T00:25:01.777Z,1.70
2019-04-26T00:29:03.783Z,2.43
2019-04-26T00:33:05.813Z,2.20
2019-04-26T00:37:07.839Z,2.33
2019-04-26T00:41:12.684Z,2.00
2019-04-26T00:45:15.064Z,2.07
2019-04-26T00:49:19.217Z,1.70
2019-04-26T00:53:24.378Z,1.90
2019-04-26T00:57:27.836Z,1.57
2019-04-26T01:01:31.691Z,1.57
2019-04-26T01:05:35.244Z,1.55
2019-04-26T01:09:37.155Z,1.80
2019-04-26T01:13:39.057Z,2.10
2019-04-26T01:17:40.973Z,1.80
2019-04-26T01:21:47.445Z,1.60
2019-04-26T01:26:05.702Z,2.40
2019-04-26T01:30:12.675Z,1.60
2019-04-26T01:34:14.705Z,1.90
2019-04-26T01:38:17.386Z,1.77
2019-04-26T01:42:30.017Z,1.50
2019-04-26T01:46:51.427Z,1.30
2019-04-26T01:51:11.737Z,1.93
2019-04-26T01:55:17.289Z,1.70
2019-04-26T01:59:22.187Z,2.30
2019-04-26T02:03:26.407Z,1.97
2019-04-26T02:07:41.428Z,1.82
2019-04-26T02:11:43.878Z,1.63
2019-04-26T02:15:45.856Z,2.00
2019-04-26T02:19:48.036Z,2.00
2019-04-26T02:24:08.291Z,2.03
2019-04-26T02:28:10.308Z,2.03
2019-04-26T02:32:12.581Z,1.87
2019-04-26T02:36:15.126Z,1.80
2019-04-26T02:40:19.712Z,1.30
2019-04-26T02:44:29.058Z,1.83
2019-04-26T02:48:52.053Z,1.52
2019-04-26T02:53:04.502Z,1.80
2019-04-26T02:57:06.676Z,1.90
2019-04-26T03:01:09.099Z,1.70
2019-04-26T03:05:11.866Z,1.53
2019-04-26T03:09:16.510Z,1.83
2019-04-26T03:13:23.279Z,1.47
2019-04-26T03:17:38.159Z,1.40
2019-04-26T03:21:57.343Z,1.60
2019-04-26T03:26:26.334Z,1.50
2019-04-26T03:31:00.340Z,1.32
2019-04-26T03:35:23.055Z,1.57
2019-04-26T03:39:47.844Z,1.67
2019-04-26T03:44:05.913Z,1.40
2019-04-26T03:48:46.026Z,1.33
2019-04-26T03:53:12.224Z,1.50
2019-04-26T03:57:50.074Z,1.20
2019-04-26T04:01:58.177Z,1.40
2019-04-26T04:06:04.633Z,1.40
2019-04-26T04:10:23.054Z,1.43
2019-04-26T04:15:00.116Z,1.30
2019-04-26T04:19:28.833Z,1.30
2019-04-26T04:23:48.725Z,1.20
2019-04-26T04:28:07.183Z,1.10
2019-04-26T04:32:36.429Z,1.20
2019-04-26T04:36:51.293Z,1.20
2019-04-26T04:41:10.480Z,1.37
2019-04-26T04:46:10.925Z,1.00
2019-04-26T04:50:17.518Z,1.27
2019-04-26T04:54:26.797Z,1.37
2019-04-26T04:58:52.443Z,1.20
2019-04-26T05:03:28.124Z,1.40
2019-04-26T05:08:13.950Z,1.32
2019-04-26T05:12:31.073Z,1.20
2019-04-26T05:17:28.040Z,0.97
2019-04-26T05:21:40.402Z,0.98
2019-04-26T05:26:16.497Z,1.32
2019-04-26T05:30:42.330Z,1.30
2019-04-26T05:35:02.055Z,1.03
2019-04-26T05:39:20.234Z,1.30
2019-04-26T05:43:46.245Z,1.40
2019-04-26T05:48:30.295Z,1.03
2019-04-26T05:53:10.246Z,1.50
2019-04-26T05:57:24.425Z,1.30
2019-04-26T06:02:01.057Z,1.40
2019-04-26T06:06:29.306Z,1.50
2019-04-26T06:10:43.204Z,1.40
2019-04-26T06:15:27.778Z,1.43
2019-04-26T06:20:23.630Z,1.22
2019-04-26T06:24:38.747Z,1.37
2019-04-26T06:29:01.055Z,1.20
2019-04-26T06:33:19.122Z,1.20
2019-04-26T06:37:36.148Z,1.52
2019-04-26T06:42:05.160Z,1.60
2019-04-26T06:46:43.046Z,1.40
2019-04-26T06:51:24.668Z,1.30
2019-04-26T06:55:25.057Z,1.77
2019-04-26T07:00:17.359Z,1.70
2019-04-26T07:04:43.524Z,1.40
2019-04-26T07:08:57.490Z,1.70
2019-04-26T07:13:32.927Z,1.70
2019-04-26T07:17:51.475Z,1.40
2019-04-26T07:22:19.828Z,1.80
2019-04-26T07:26:50.348Z,1.70
2019-04-26T07:31:06.239Z,1.87
2019-04-26T07:35:19.651Z,1.60
2019-04-26T07:39:39.736Z,1.90
2019-04-26T07:44:12.809Z,1.80
2019-04-26T07:48:41.549Z,1.80
2019-04-26T07:53:09.324Z,1.60
2019-04-26T07:58:03.572Z,2.17
2019-04-26T08:02:32.287Z,1.80
2019-04-26T08:06:56.071Z,1.93
2019-04-26T08:11:12.832Z,2.23
2019-04-26T08:15:21.327Z,1.70
2019-04-26T08:19:26.928Z,1.80
2019-04-26T08:23:41.929Z,1.87
2019-04-26T08:27:42.291Z,1.97
2019-04-26T08:31:48.817Z,2.13
2019-04-26T08:35:55.374Z,2.20
2019-04-26T08:39:59.472Z,1.97
2019-04-26T08:44:09.769Z,1.93
2019-04-26T08:48:23.350Z,2.23
2019-04-26T08:52:26.622Z,2.17
2019-04-26T08:56:47.704Z,2.53
2019-04-26T09:00:58.543Z,2.47
2019-04-26T09:05:25.261Z,2.47
2019-04-26T09:09:32.427Z,2.45
2019-04-26T09:13:38.993Z,2.73
2019-04-26T09:17:40.911Z,2.37
2019-04-26T09:21:47.399Z,2.60
2019-04-26T09:25:59.087Z,2.50
2019-04-26T09:29:54.982Z,2.77
2019-04-26T09:33:58.527Z,2.77
2019-04-26T09:38:00.446Z,2.43
2019-04-26T09:42:12.771Z,2.63
2019-04-26T09:46:17.021Z,3.30
2019-04-26T09:50:26.778Z,2.70
2019-04-26T09:54:28.861Z,3.30
2019-04-26T09:58:32.192Z,2.70
2019-04-26T10:02:35.405Z,3.20
2019-04-26T10:06:37.433Z,3.20
2019-04-26T10:10:39.425Z,3.90
2019-04-26T10:14:43.047Z,3.42
2019-04-26T10:18:50.517Z,3.50
2019-04-26T10:22:52.439Z,3.60
2019-04-26T10:26:55.515Z,4.10
2019-04-26T10:30:57.576Z,3.80
2019-04-26T10:34:59.651Z,13.90
2019-04-26T10:39:01.565Z,4.77
2019-04-26T10:43:06.392Z,4.43
2019-04-26T10:47:08.548Z,4.60
2019-04-26T10:51:11.232Z,4.90
2019-04-26T10:55:21.361Z,5.90
2019-04-26T10:59:25.290Z,5.78
2019-04-26T11:03:27.520Z,4.95
2019-04-26T11:07:30.385Z,5.50
2019-04-26T11:11:32.746Z,4.60
2019-04-26T11:15:34.844Z,4.90
2019-04-26T11:19:36.821Z,5.40
2019-04-26T11:23:41.074Z,5.07
2019-04-26T11:27:44.326Z,5.23
2019-04-26T11:31:46.099Z,5.63
2019-04-26T11:35:48.154Z,5.43
2019-04-26T11:39:50.088Z,4.33
2019-04-26T11:43:52.956Z,5.40
2019-04-26T11:47:56.601Z,5.23
2019-04-26T11:52:02.656Z,5.37
2019-04-26T11:56:04.598Z,5.60
2019-04-26T12:00:11.096Z,4.97
2019-04-26T12:04:20.149Z,5.07
2019-04-26T12:08:26.587Z,4.70
2019-04-26T12:12:28.596Z,4.55
2019-04-26T12:16:30.574Z,4.97
2019-04-26T12:20:32.779Z,4.77
2019-04-26T12:24:34.695Z,4.40
2019-04-26T12:28:40.040Z,4.40
2019-04-26T12:32:40.209Z,4.53
2019-04-26T12:36:42.142Z,4.23
2019-04-26T12:40:46.179Z,3.67
2019-04-26T12:45:05.499Z,3.63
2019-04-26T12:49:07.864Z,3.40
2019-04-26T12:53:09.797Z,3.53
2019-04-26T12:57:11.688Z,3.87
2019-04-26T13:01:14.367Z,3.03
2019-04-26T13:05:18.886Z,3.37
2019-04-26T13:09:26.190Z,3.37
2019-04-26T13:13:26.756Z,3.00
2019-04-26T13:17:31.347Z,2.77
2019-04-26T13:21:37.146Z,2.70
2019-04-26T13:25:40.428Z,2.03
2019-04-26T13:29:41.452Z,2.20
2019-04-26T13:33:43.390Z,2.27
2019-04-26T13:37:48.443Z,2.07
2019-04-26T13:42:02.119Z,1.73
2019-04-26T13:45:56.576Z,2.00
2019-04-26T13:50:12.237Z,2.30
2019-04-26T13:54:16.667Z,2.33
2019-04-26T13:58:20.952Z,2.90
2019-04-26T14:02:21.536Z,1.93
2019-04-26T14:06:23.554Z,1.90
2019-04-26T14:10:25.614Z,2.22
2019-04-26T14:14:30.289Z,2.10
2019-04-26T14:18:34.515Z,2.03
2019-04-26T14:22:37.068Z,2.00
2019-04-26T14:26:41.761Z,2.20
2019-04-26T14:30:43.786Z,2.50
2019-04-26T14:34:45.773Z,2.67
2019-04-26T14:39:05.731Z,2.50
2019-04-26T14:43:06.797Z,2.87
2019-04-26T14:47:13.844Z,2.97
2019-04-26T14:51:12.506Z,2.90
2019-04-26T14:55:16.534Z,2.90
2019-04-26T14:59:18.062Z,2.67
2019-04-26T15:03:24.478Z,2.77
2019-04-26T15:07:28.298Z,3.25
2019-04-26T15:11:32.292Z,3.13
2019-04-26T15:15:34.670Z,2.87
2019-04-26T15:19:40.314Z,2.93
2019-04-26T15:23:40.261Z,3.50
2019-04-26T15:27:44.121Z,7.57
2019-04-26T15:31:45.750Z,3.07
2019-04-26T15:35:48.706Z,3.17
2019-04-26T15:40:02.367Z,3.50
2019-04-26T15:44:07.732Z,3.67
2019-04-26T15:48:40.610Z,3.27
2019-04-26T15:52:43.891Z,2.77
2019-04-26T15:56:49.372Z,2.77
2019-04-26T16:00:49.555Z,2.77
2019-04-26T16:04:54.408Z,2.90
2019-04-26T16:08:55.080Z,2.67
2019-04-26T16:13:01.276Z,2.70
2019-04-26T16:17:03.166Z,2.27
2019-04-26T16:21:04.345Z,2.20
2019-04-26T16:25:07.958Z,2.73
2019-04-26T16:29:09.630Z,3.07
2019-04-26T16:33:13.489Z,3.40
2019-04-26T16:37:21.834Z,3.18
2019-04-26T16:41:21.762Z,2.83
2019-04-26T16:45:23.858Z,3.58
2019-04-26T16:49:25.771Z,3.92
2019-04-26T16:53:43.855Z,4.30
2019-04-26T16:57:31.418Z,3.08
2019-04-26T17:01:33.518Z,3.67
2019-04-26T17:05:46.848Z,3.27
2019-04-26T17:09:57.034Z,3.63
2019-04-26T17:13:51.223Z,4.00
2019-04-26T17:17:50.390Z,3.90
2019-04-26T17:21:56.495Z,4.03
2019-04-26T17:26:04.021Z,3.37
2019-04-26T17:46:43.479Z,4.00
2019-04-26T17:50:45.661Z,3.97
2019-04-26T18:03:01.879Z,4.23
2019-04-26T18:07:33.363Z,4.50
2019-04-26T18:11:07.762Z,4.20
2019-04-26T18:15:12.514Z,3.83
2019-04-26T18:19:15.501Z,4.17
2019-04-26T18:23:18.842Z,4.30
2019-04-26T18:31:29.112Z,4.87
2019-04-26T18:35:33.731Z,3.80
2019-04-26T18:39:36.633Z,3.77
2019-04-26T18:43:38.533Z,3.43
2019-04-26T18:47:45.047Z,3.20
2019-04-26T18:51:48.489Z,3.03
2019-04-26T18:55:50.921Z,3.63
2019-04-26T18:59:52.963Z,2.70
2019-04-26T19:03:54.983Z,3.30
2019-04-26T19:07:56.891Z,3.53
2019-04-26T19:11:58.875Z,3.57
2019-04-26T19:16:18.810Z,4.00
2019-04-26T19:20:28.298Z,3.50
2019-04-26T19:24:30.193Z,3.80
2019-04-26T19:28:32.106Z,4.00
2019-04-26T19:32:35.375Z,4.17
2019-04-26T19:36:37.688Z,4.13
2019-04-26T19:40:46.474Z,3.70
2019-04-26T19:44:43.188Z,3.60
2019-04-26T19:49:00.063Z,3.50
2019-04-26T19:53:14.244Z,3.23
2019-04-26T19:57:21.728Z,3.37
2019-04-26T20:01:25.069Z,3.00
2019-04-26T20:05:26.959Z,4.00
2019-04-26T20:09:29.143Z,3.00
2019-04-26T20:13:31.685Z,4.50
2019-04-26T20:17:33.778Z,4.63
2019-04-26T20:21:35.979Z,4.67
2019-04-26T20:25:37.882Z,3.60
2019-04-26T20:29:40.800Z,4.70
2019-04-26T20:33:43.383Z,4.93
2019-04-26T20:37:45.791Z,2.87
2019-04-26T20:42:00.313Z,3.40
2019-04-26T20:46:10.601Z,3.90
2019-04-26T20:50:01.126Z,2.80
2019-04-26T20:53:58.671Z,4.73
2019-04-26T20:58:07.057Z,4.77
2019-04-26T21:02:08.136Z,5.57
2019-04-26T21:06:07.877Z,5.77
2019-04-26T21:10:15.214Z,3.77
2019-04-26T21:14:13.918Z,5.43
2019-04-26T21:18:15.812Z,4.67
2019-04-26T21:22:25.470Z,6.27
2019-04-26T21:26:24.345Z,7.60
2019-04-26T21:30:38.657Z,4.60
2019-04-26T21:34:46.443Z,5.73
2019-04-26T21:38:48.218Z,6.75
2019-04-26T21:42:53.818Z,6.77
2019-04-26T21:46:58.660Z,6.40
2019-04-26T21:50:57.414Z,6.30
2019-04-26T21:54:59.311Z,7.07
2019-04-26T21:59:03.458Z,6.47
2019-04-26T22:03:07.800Z,6.70
2019-04-26T22:07:09.257Z,4.80
2019-04-26T22:11:13.982Z,5.73
2019-04-26T22:15:35.853Z,5.30
2019-04-26T22:19:36.213Z,6.70
2019-04-26T22:23:39.749Z,6.33
2019-04-26T22:27:43.630Z,8.57
2019-04-26T22:31:45.305Z,7.40
2019-04-26T22:35:50.578Z,6.53
2019-04-26T22:39:50.816Z,6.97
2019-04-26T22:43:57.029Z,5.65
2019-04-26T22:47:58.728Z,7.97
2019-04-26T22:52:00.611Z,5.97
2019-04-26T22:56:03.316Z,7.00
2019-04-26T23:00:07.551Z,5.97
2019-04-26T23:04:11.488Z,6.53
2019-04-26T23:08:13.732Z,9.27
2019-04-26T23:12:27.963Z,11.90
2019-04-26T23:17:08.478Z,11.10
2019-04-26T23:21:33.877Z,10.13
2019-04-26T23:25:37.032Z,9.73
2019-04-26T23:29:39.249Z,13.25
2019-04-26T23:33:42.834Z,14.17
2019-04-26T23:37:46.003Z,15.87
2019-04-26T23:41:49.091Z,9.23
2019-04-26T23:45:51.000Z,13.30
2019-04-26T23:49:53.850Z,11.97
2019-04-26T23:53:57.896Z,6.17
2019-04-26T23:58:00.497Z,9.80
